Time;durP1;ratioP1;P1;durP2;ratioP2;P2;SDS_P1;SDS_P2;PMS_P1;PMS_P2;Temp;Humidity;BMP_temperature;BMP_pressure;BME280_temperature;BME280_humidity;BME280_pressure;Samples;Min_cycle;Max_cycle;Signal;HPM_P1;HPM_P2
2022/04/30 00:01:02;;;;;;;1.17;0.88;;;;;;;12.43;49.91;101084.25;1710557;83;21007;-70
2022/04/30 00:03:28;;;;;;;3.72;0.80;;;;;;;12.41;49.76;101080.92;1682714;84;21064;-70
2022/04/30 00:05:56;;;;;;;0.85;0.82;;;;;;;12.41;49.80;101085.42;1682362;84;21036;-71
2022/04/30 00:08:22;;;;;;;;;;;;;;;12.40;49.51;101087.79;1685021;84;20989;-72
2022/04/30 00:12:23;;;;;;;1.55;0.88;;;;;;;12.40;49.73;101081.11;1736157;79;22924;-72
2022/04/30 00:14:48;;;;;;;0.80;0.80;;;;;;;12.32;50.06;101087.36;1691275;83;21057;-71
2022/04/30 00:17:15;;;;;;;1.37;1.05;;;;;;;12.32;49.96;101082.50;1709158;83;21170;-71
2022/04/30 00:19:42;;;;;;;1.98;0.95;;;;;;;12.31;49.90;101084.34;1709423;83;21045;-71
2022/04/30 00:22:09;;;;;;;;;;;;;;;12.31;50.37;101083.53;1695869;83;21133;-71
2022/04/30 00:24:35;;;;;;;1.22;1.02;;;;;;;12.27;50.90;101083.05;1651048;85;20217;-70
2022/04/30 00:27:03;;;;;;;1.12;0.90;;;;;;;12.18;51.17;101077.45;1654343;85;21101;-71
2022/04/30 00:29:32;;;;;;;0.78;0.62;;;;;;;12.17;51.44;101075.30;1628704;87;21114;-71
2022/04/30 00:32:02;;;;;;;0.80;0.80;;;;;;;12.19;51.81;101079.13;1628204;87;21517;-71
2022/04/30 00:34:31;;;;;;;0.93;0.68;;;;;;;12.18;51.77;101076.12;1628737;86;21070;-71
2022/04/30 00:37:02;;;;;;;2.37;1.00;;;;;;;12.17;51.69;101075.81;1600843;88;21252;-71
2022/04/30 00:39:27;;;;;;;0.98;0.95;;;;;;;12.13;51.80;101075.34;1627720;87;21061;-70
2022/04/30 00:41:54;;;;;;;1.30;1.20;;;;;;;12.13;51.83;101075.34;1630978;86;21115;-69
2022/04/30 00:44:21;;;;;;;2.52;0.80;;;;;;;12.11;52.07;101077.36;1636381;85;21077;-70
2022/04/30 00:46:47;;;;;;;2.17;1.98;;;;;;;12.09;52.34;101078.02;1660261;85;21470;-69
2022/04/30 00:49:14;;;;;;;2.75;1.15;;;;;;;12.06;52.26;101078.41;1624433;86;21659;-70
2022/04/30 00:51:43;;;;;;;1.30;1.15;;;;;;;11.95;51.65;101066.30;1624157;86;21549;-71
2022/04/30 00:54:12;;;;;;;2.13;1.93;;;;;;;12.02;52.21;101073.92;1644388;86;21084;-71
2022/04/30 00:56:58;;;;;;;1.53;1.23;;;;;;;12.02;52.30;101077.11;1662272;86;20997;-71
2022/04/30 00:59:26;;;;;;;2.00;1.42;;;;;;;12.02;52.04;101074.44;1609409;87;21059;-70
2022/04/30 01:01:59;;;;;;;1.35;1.12;;;;;;;12.00;52.54;101069.77;1649445;85;21371;-71
2022/04/30 01:04:41;;;;;;;1.30;1.20;;;;;;;11.97;52.92;101070.13;1652131;85;21156;-72
2022/04/30 01:07:09;;;;;;;2.10;1.60;;;;;;;11.94;52.41;101071.81;1651966;85;21033;-73
2022/04/30 01:09:44;;;;;;;2.05;1.35;;;;;;;11.93;52.22;101070.16;1652064;85;21100;-71
2022/04/30 01:12:13;;;;;;;1.50;1.37;;;;;;;11.93;52.47;101067.49;1657249;85;21036;-70
2022/04/30 01:14:41;;;;;;;1.75;1.45;;;;;;;11.90;52.33;101065.17;1651900;87;21045;-71
2022/04/30 01:17:11;;;;;;;1.90;1.20;;;;;;;11.87;52.50;101060.48;1651378;85;21147;-69
2022/04/30 01:19:43;;;;;;;1.92;1.82;;;;;;;11.85;52.96;101061.16;1651502;85;21518;-70
2022/04/30 01:22:33;;;;;;;2.40;1.37;;;;;;;11.83;53.39;101056.52;1652649;85;21189;-70
2022/04/30 01:25:03;;;;;;;2.67;1.33;;;;;;;11.81;53.70;101058.53;1665745;85;21072;-70
2022/04/30 01:27:31;;;;;;;5.25;2.10;;;;;;;11.72;53.48;101059.60;1665657;85;21070;-71
2022/04/30 01:30:01;;;;;;;1.70;1.40;;;;;;;11.66;53.32;101061.14;1666901;85;21110;-70
2022/04/30 01:38:07;;;;;;;5.20;2.27;;;;;;;11.46;54.27;101052.75;1665336;85;21081;-70
2022/04/30 01:40:34;;;;;;;6.33;3.40;;;;;;;11.37;54.26;101061.81;1666834;85;21054;-69
2022/04/30 01:43:02;;;;;;;4.80;3.87;;;;;;;11.33;53.55;101058.35;1664955;85;21132;-71
2022/04/30 01:45:30;;;;;;;3.03;2.73;;;;;;;11.30;53.50;101051.50;1651276;85;21164;-70
2022/04/30 01:47:59;;;;;;;2.60;2.40;;;;;;;11.29;53.92;101056.53;1655578;85;21544;-70
2022/04/30 01:50:26;;;;;;;2.67;2.43;;;;;;;11.26;54.29;101048.87;1650963;86;21056;-68
2022/04/30 01:52:52;;;;;;;2.62;1.95;;;;;;;11.25;54.72;101050.71;1658275;86;21569;-70
2022/04/30 01:55:19;;;;;;;2.22;2.08;;;;;;;11.24;54.92;101050.37;1650019;85;21062;-69
2022/04/30 01:57:47;;;;;;;3.10;2.80;;;;;;;11.25;55.38;101047.22;1622993;87;21533;-69
2022/04/30 02:00:14;;;;;;;4.20;3.52;;;;;;;11.26;55.24;101041.71;1688379;84;21101;-68
2022/04/30 02:02:49;;;;;;;4.33;3.03;;;;;;;11.27;54.83;101042.02;1677889;84;21057;-69
2022/04/30 02:05:16;;;;;;;9.40;4.03;;;;;;;11.27;54.78;101040.69;1675055;84;21529;-70
2022/04/30 02:07:52;;;;;;;6.33;4.63;;;;;;;11.26;54.50;101044.38;1674585;84;21037;-69
2022/04/30 02:10:21;;;;;;;9.08;4.20;;;;;;;11.24;54.33;101041.03;1673892;84;21192;-69
2022/04/30 02:12:51;;;;;;;6.17;4.63;;;;;;;11.23;54.38;101039.90;1659989;84;21053;-70
2022/04/30 02:15:19;;;;;;;10.97;5.30;;;;;;;11.19;53.78;101042.56;1672312;84;22467;-70
2022/04/30 02:17:47;;;;;;;6.93;5.43;;;;;;;11.18;53.22;101039.58;1673248;84;21038;-70
2022/04/30 02:20:29;;;;;;;8.30;6.60;;;;;;;11.19;52.81;101032.74;1673089;84;21124;-70
2022/04/30 02:22:55;;;;;;;10.00;5.85;;;;;;;11.21;52.33;101028.06;1681691;84;21057;-69
2022/04/30 02:25:22;;;;;;;7.23;5.67;;;;;;;11.22;52.17;101026.21;1704066;84;21059;-70
2022/04/30 02:27:52;;;;;;;9.80;5.40;;;;;;;11.24;52.05;101033.02;1703831;83;21025;-71
2022/04/30 02:30:21;;;;;;;10.03;6.13;;;;;;;11.25;52.05;101036.55;1703830;84;21067;-70
2022/04/30 02:32:51;;;;;;;7.00;5.43;;;;;;;11.26;51.95;101041.71;1704027;84;21009;-71
2022/04/30 02:35:23;;;;;;;6.87;4.90;;;;;;;11.28;52.01;101035.69;1703693;83;20996;-70
2022/04/30 02:37:54;;;;;;;8.00;5.97;;;;;;;11.29;51.88;101033.84;1704152;84;21534;-69
2022/04/30 02:40:22;;;;;;;5.80;5.05;;;;;;;11.31;51.66;101031.83;1703761;84;21068;-69
2022/04/30 02:42:52;;;;;;;8.63;5.17;;;;;;;11.33;52.69;101037.82;1703836;84;21132;-70
2022/04/30 02:45:22;;;;;;;5.73;4.40;;;;;;;11.31;53.19;101034.50;1688164;84;21029;-69
2022/04/30 02:47:56;;;;;;;6.97;5.23;;;;;;;11.29;53.73;101040.01;1671409;85;21055;-70
2022/04/30 02:50:23;;;;;;;5.63;4.50;;;;;;;11.28;54.04;101041.52;1659507;84;21116;-70
2022/04/30 02:52:56;;;;;;;5.30;4.53;;;;;;;11.25;54.63;101038.70;1645041;87;21075;-69
2022/04/30 02:55:23;;;;;;;5.33;4.75;;;;;;;11.24;54.94;101050.87;1656689;84;21035;-70
2022/04/30 03:00:45;;;;;;;5.87;4.07;;;;;;;11.18;54.95;101050.25;1682117;84;21054;-70
2022/04/30 03:03:30;;;;;;;8.27;6.03;;;;;;;11.15;54.76;101045.25;1696172;84;21101;-71
2022/04/30 03:05:58;;;;;;;8.83;5.23;;;;;;;11.12;54.51;101042.45;1696497;84;21104;-71
2022/04/30 03:08:27;;;;;;;8.03;5.77;;;;;;;11.11;54.40;101042.10;1696136;84;22346;-69
2022/04/30 03:10:56;;;;;;;7.73;4.97;;;;;;;11.13;53.95;101044.60;1696019;84;21050;-70
2022/04/30 03:13:25;;;;;;;7.77;5.17;;;;;;;11.15;53.89;101042.59;1696451;84;21572;-72
2022/04/30 03:15:55;;;;;;;8.43;5.20;;;;;;;11.14;53.67;101047.61;1696115;84;21098;-71
2022/04/30 03:23:58;;;;;;;;;;;;;;;11.08;54.56;101053.14;1696069;83;22177;-70
2022/04/30 03:26:26;;;;;;;8.60;5.00;;;;;;;11.06;55.27;101060.49;1672927;85;20512;-70
2022/04/30 03:28:53;;;;;;;10.13;5.67;;;;;;;11.00;55.40;101062.02;1669361;85;21107;-70
2022/04/30 03:31:19;;;;;;;8.77;5.70;;;;;;;10.99;55.42;101069.68;1665122;85;21030;-71
2022/04/30 03:33:48;;;;;;;9.58;4.70;;;;;;;11.02;55.57;101068.48;1676892;85;21158;-71
2022/04/30 03:36:20;;;;;;;10.87;7.67;;;;;;;11.05;55.78;101062.81;1676668;85;21482;-69
2022/04/30 03:38:47;;;;;;;10.43;6.97;;;;;;;11.07;55.77;101066.96;1676726;85;21649;-71
2022/04/30 03:41:15;;;;;;;10.73;7.27;;;;;;;11.08;55.72;101071.82;1622222;88;21501;-71
2022/04/30 03:43:43;;;;;;;13.07;8.50;;;;;;;11.07;55.47;101071.48;1661322;86;21023;-71
2022/04/30 03:46:10;;;;;;;15.43;9.73;;;;;;;11.07;55.34;101070.97;1642522;85;21035;-70
2022/04/30 03:48:36;;;;;;;11.53;8.57;;;;;;;11.06;55.13;101073.32;1676747;85;21637;-70
2022/04/30 03:51:03;;;;;;;;;;;;;;;11.07;55.06;101072.30;1679177;85;21046;-71
2022/04/30 03:53:29;;;;;;;15.60;10.63;;;;;;;11.10;54.97;101075.97;1676630;85;20225;-69
2022/04/30 03:55:56;;;;;;;14.23;9.30;;;;;;;11.09;54.80;101072.13;1688022;84;21530;-71
2022/04/30 03:58:22;;;;;;;16.63;11.03;;;;;;;11.13;54.91;101073.95;1708511;84;21105;-70
2022/04/30 04:00:49;;;;;;;18.52;10.13;;;;;;;11.16;54.89;101074.95;1708491;83;21020;-70
2022/04/30 04:03:15;;;;;;;13.33;9.47;;;;;;;11.18;55.04;101074.27;1695647;82;21082;-70
2022/04/30 04:05:42;;;;;;;13.78;9.68;;;;;;;11.17;55.21;101076.59;1708796;83;21070;-70
2022/04/30 04:08:12;;;;;;;17.23;9.43;;;;;;;11.13;55.40;101075.28;1708637;83;21594;-70
2022/04/30 04:10:40;;;;;;;13.87;9.70;;;;;;;11.09;55.90;101076.13;1708589;84;21077;-68
2022/04/30 04:18:39;;;;;;;16.20;9.37;;;;;;;11.06;56.68;101073.32;1696481;83;21107;-70
2022/04/30 04:21:05;;;;;;;12.20;8.50;;;;;;;11.10;56.56;101071.97;1674592;84;20999;-70
2022/04/30 04:25:58;;;;;;;14.17;8.83;;;;;;;11.14;56.44;101071.63;1688270;84;21092;-70
2022/04/30 04:26:01;;;;;;;15.97;10.13;;;;;;;11.15;56.20;101071.94;1682200;84;21071;-71
2022/04/30 04:28:28;;;;;;;14.23;10.13;;;;;;;11.13;56.40;101069.95;1688911;84;21144;-71
2022/04/30 04:30:57;;;;;;;17.53;11.03;;;;;;;11.10;56.65;101068.47;1709939;82;21048;-69
2022/04/30 04:33:23;;;;;;;22.03;12.40;;;;;;;11.09;56.43;101070.80;1694512;84;21146;-70
2022/04/30 04:35:51;;;;;;;18.60;11.10;;;;;;;11.08;56.43;101072.64;1686099;84;21086;-70
2022/04/30 04:38:17;;;;;;;17.73;10.72;;;;;;;11.08;56.55;101072.64;1690888;83;21084;-70
2022/04/30 04:40:43;;;;;;;21.15;11.53;;;;;;;11.11;56.21;101082.13;1679663;84;21073;-70
2022/04/30 04:43:09;;;;;;;18.42;11.10;;;;;;;11.17;55.76;101085.45;1688152;84;21052;-71
2022/04/30 04:45:36;;;;;;;20.82;11.70;;;;;;;11.22;55.52;101088.92;1671406;84;21054;-70
2022/04/30 04:48:04;;;;;;;18.48;11.53;;;;;;;11.26;55.52;101093.75;1645884;86;21511;-69
2022/04/30 04:50:31;;;;;;;29.37;16.83;;;;;;;11.30;56.06;101089.72;1634068;87;21110;-70
2022/04/30 04:52:57;;;;;;;37.85;22.42;;;;;;;11.33;56.35;101090.38;1639828;87;21038;-70
2022/04/30 04:55:24;;;;;;;37.50;20.88;;;;;;;11.30;56.79;101092.39;1627035;87;21448;-69
2022/04/30 04:57:52;;;;;;;35.60;22.00;;;;;;;11.33;57.45;101094.38;1655871;85;21048;-69
2022/04/30 05:00:19;;;;;;;35.98;21.60;;;;;;;11.32;57.81;101094.04;1643150;86;21030;-68
2022/04/30 05:02:46;;;;;;;33.97;20.63;;;;;;;11.31;58.54;101089.21;1660970;84;21052;-70
2022/04/30 05:05:13;;;;;;;44.15;21.57;;;;;;;11.31;60.49;101098.55;1668958;84;21051;-70
2022/04/30 05:07:41;;;;;;;33.83;20.13;;;;;;;11.30;60.99;101096.88;1686375;84;21641;-71
2022/04/30 05:10:07;;;;;;;33.00;20.48;;;;;;;11.33;61.36;101091.72;1669061;85;21593;-71
2022/04/30 05:12:37;;;;;;;29.60;19.57;;;;;;;11.33;62.03;101089.87;1647142;86;21641;-70
2022/04/30 05:15:04;;;;;;;33.53;18.07;;;;;;;11.33;61.96;101092.54;1635961;86;21567;-71
2022/04/30 05:17:32;;;;;;;30.37;17.50;;;;;;;11.34;62.08;101092.02;1622947;87;21043;-70
2022/04/30 05:19:58;;;;;;;31.03;18.40;;;;;;;11.35;61.82;101097.20;1624245;87;21026;-70
2022/04/30 05:22:24;;;;;;;24.47;15.45;;;;;;;11.39;61.69;101099.84;1611369;87;21317;-70
2022/04/30 05:24:52;;;;;;;27.33;16.03;;;;;;;11.42;62.13;101099.50;1650938;85;21049;-70
2022/04/30 05:27:18;;;;;;;22.40;14.35;;;;;;;11.42;62.29;101100.01;1650883;85;21063;-69
2022/04/30 05:29:44;;;;;;;25.65;15.20;;;;;;;11.41;62.15;101098.33;1650096;85;21067;-69
2022/04/30 05:32:11;;;;;;;24.83;14.27;;;;;;;11.42;62.78;101096.83;1624262;87;21115;-70
2022/04/30 05:34:37;;;;;;;22.15;13.55;;;;;;;11.43;62.75;101102.51;1644402;86;21125;-71
2022/04/30 05:37:03;;;;;;;;;;;;;;;11.45;61.85;101099.64;1633532;86;21003;-70
2022/04/30 05:39:31;;;;;;;21.82;11.70;;;;;;;11.48;62.10;101101.45;1634171;86;20151;-71
2022/04/30 05:41:57;;;;;;;20.70;11.90;;;;;;;11.47;62.58;101098.95;1631912;86;21027;-70
2022/04/30 05:44:23;;;;;;;21.30;11.60;;;;;;;11.48;62.12;101105.46;1637769;85;21154;-71
2022/04/30 05:46:49;;;;;;;20.55;9.70;;;;;;;11.50;60.51;101103.45;1639858;87;22027;-72
2022/04/30 05:49:16;;;;;;;;;;;;;;;11.53;60.29;101099.61;1658372;85;21106;-70
2022/04/30 05:51:43;;;;;;;15.08;9.58;;;;;;;11.53;59.50;101098.28;1623024;87;20231;-71
2022/04/30 05:54:10;;;;;;;12.23;8.23;;;;;;;11.50;60.21;101099.44;1657126;85;21051;-72
2022/04/30 05:56:36;;;;;;;;;;;;;;;11.56;59.01;101101.09;1642665;86;21122;-71
2022/04/30 05:59:04;;;;;;;11.57;8.23;;;;;;;11.66;59.16;101103.87;1639980;86;20160;-71
2022/04/30 06:01:31;;;;;;;12.20;7.63;;;;;;;11.68;59.07;101105.85;1640581;86;21545;-71
2022/04/30 06:03:57;;;;;;;13.43;7.55;;;;;;;11.76;58.04;101103.63;1656777;85;21126;-70
2022/04/30 06:06:24;;;;;;;11.68;7.72;;;;;;;11.85;57.65;101105.75;1642694;86;21182;-70
2022/04/30 06:08:51;;;;;;;12.37;7.03;;;;;;;11.93;57.64;101103.05;1658871;86;21077;-70
2022/04/30 06:11:17;;;;;;;11.90;7.15;;;;;;;12.03;57.06;101106.80;1641292;86;21054;-70
2022/04/30 06:13:43;;;;;;;13.95;8.05;;;;;;;12.15;56.54;101101.37;1641223;86;21200;-71
2022/04/30 06:16:13;;;;;;;13.48;7.53;;;;;;;12.27;56.05;101103.92;1658504;85;21076;-70
2022/04/30 06:18:40;;;;;;;12.15;6.78;;;;;;;12.39;55.67;101102.16;1658329;85;21066;-71
2022/04/30 06:21:06;;;;;;;11.15;5.90;;;;;;;12.53;54.89;101096.01;1658541;85;21060;-71
2022/04/30 06:23:32;;;;;;;;;;;;;;;12.64;54.27;101095.56;1660749;85;21605;-72
2022/04/30 06:25:59;;;;;;;9.80;7.67;;;;;;;12.72;53.45;101087.13;1658438;86;20209;-71
2022/04/30 06:28:25;;;;;;;10.32;7.20;;;;;;;12.73;53.29;101094.95;1641336;86;21116;-71
2022/04/30 06:30:52;;;;;;;12.30;7.10;;;;;;;12.77;52.69;101093.59;1643836;86;21056;-72
2022/04/30 06:33:19;;;;;;;12.65;7.17;;;;;;;12.82;52.72;101096.52;1641138;86;21634;-72
2022/04/30 06:35:45;;;;;;;11.12;6.50;;;;;;;12.90;52.65;101103.62;1641773;86;21131;-71
2022/04/30 06:38:12;;;;;;;10.60;6.42;;;;;;;12.98;52.65;101099.53;1636656;86;21124;-70
2022/04/30 06:40:39;;;;;;;7.03;5.10;;;;;;;13.08;51.81;101098.42;1632300;86;22524;-70
2022/04/30 06:43:05;;;;;;;8.30;5.90;;;;;;;13.16;51.34;101104.48;1644223;86;21113;-72
2022/04/30 06:45:32;;;;;;;11.25;6.33;;;;;;;13.18;51.02;101102.45;1633653;85;21065;-72
2022/04/30 06:47:59;;;;;;;10.50;5.70;;;;;;;13.24;50.67;101106.22;1661371;86;21342;-70
2022/04/30 06:50:25;;;;;;;13.80;6.67;;;;;;;13.22;50.58;101107.77;1642313;86;21554;-71
2022/04/30 06:58:22;;;;;;;13.70;7.92;;;;;;;13.43;50.80;101107.02;1645782;86;21047;-72
2022/04/30 07:03:27;;;;;;;11.40;7.58;;;;;;;13.67;50.67;101105.00;1628441;86;21558;-73
2022/04/30 07:06:03;;;;;;;11.70;8.40;;;;;;;13.80;49.91;101105.66;1658153;85;21532;-73
2022/04/30 07:08:33;;;;;;;17.57;9.38;;;;;;;13.91;49.07;101107.00;1640846;86;21051;-73
2022/04/30 07:11:01;;;;;;;12.30;7.92;;;;;;;13.97;49.14;101102.20;1640840;86;21117;-71
2022/04/30 07:13:30;;;;;;;7.58;6.45;;;;;;;14.00;48.51;101104.52;1640887;86;21077;-74
2022/04/30 07:15:57;;;;;;;13.53;7.17;;;;;;;13.96;48.50;101099.23;1659966;86;21026;-72
2022/04/30 07:18:24;;;;;;;12.82;6.28;;;;;;;13.97;48.73;101102.20;1640885;86;21041;-72
2022/04/30 07:20:53;;;;;;;7.10;5.20;;;;;;;14.02;47.81;101111.85;1640286;86;21102;-72
2022/04/30 07:23:20;;;;;;;9.95;7.37;;;;;;;14.05;48.08;101105.27;1639256;85;21608;-71
2022/04/30 07:25:48;;;;;;;17.57;8.25;;;;;;;14.07;48.11;101106.75;1640999;86;21144;-72
2022/04/30 07:28:15;;;;;;;10.23;6.95;;;;;;;14.10;48.00;101110.89;1641231;86;21030;-70
2022/04/30 07:30:42;;;;;;;6.67;4.28;;;;;;;14.13;48.08;101109.99;1640796;86;21061;-73
2022/04/30 07:33:08;;;;;;;5.72;3.95;;;;;;;14.23;47.46;101116.88;1641180;86;21116;-71
2022/04/30 07:35:35;;;;;;;8.83;4.45;;;;;;;14.27;47.39;101114.13;1640980;86;21287;-72
2022/04/30 07:38:02;;;;;;;5.40;4.25;;;;;;;14.27;47.60;101111.45;1640782;86;21132;-72
2022/04/30 07:40:29;;;;;;;5.72;4.08;;;;;;;14.34;47.40;101113.67;1640793;86;21576;-72
2022/04/30 07:42:57;;;;;;;9.75;5.55;;;;;;;14.46;47.07;101110.77;1640819;86;21176;-71
2022/04/30 07:45:23;;;;;;;8.93;5.92;;;;;;;14.47;47.16;101105.73;1635981;86;21562;-72
2022/04/30 07:47:50;;;;;;;;;;;;;;;14.45;47.42;101108.27;1629137;86;21073;-73
2022/04/30 07:50:17;;;;;;;16.48;5.92;;;;;;;14.62;47.62;101106.16;1641001;86;20283;-71
2022/04/30 07:52:43;;;;;;;9.05;4.65;;;;;;;14.72;47.30;101106.65;1640560;86;21164;-72
2022/04/30 07:55:09;;;;;;;5.87;3.98;;;;;;;14.89;46.71;101107.16;1657048;85;20998;-72
2022/04/30 07:57:35;;;;;;;;;;;;;;;15.07;45.93;101103.44;1643523;86;21124;-71
2022/04/30 08:00:01;;;;;;;2.42;2.20;;;;;;;15.20;45.32;101101.34;1630711;86;20463;-74
2022/04/30 08:02:30;;;;;;;3.25;2.90;;;;;;;15.13;45.15;101108.01;1640525;86;21097;-72
2022/04/30 08:04:58;;;;;;;2.90;2.70;;;;;;;15.15;45.45;101103.78;1640170;86;21070;-71
2022/04/30 08:07:24;;;;;;;4.35;2.20;;;;;;;15.22;45.35;101100.63;1640744;86;21583;-70
2022/04/30 08:09:50;;;;;;;2.75;2.15;;;;;;;15.26;45.88;101093.81;1641107;86;21173;-72
2022/04/30 08:12:20;;;;;;;2.60;2.35;;;;;;;15.28;45.56;101099.81;1640932;86;21084;-72
2022/04/30 08:14:48;;;;;;;1.65;1.30;;;;;;;15.34;44.99;101099.52;1670337;84;21070;-73
2022/04/30 08:17:14;;;;;;;1.55;1.45;;;;;;;15.34;43.88;101088.25;1684319;84;21078;-73
2022/04/30 08:19:41;;;;;;;1.55;1.45;;;;;;;15.27;43.74;101096.80;1684559;84;21129;-71
2022/04/30 08:22:08;;;;;;;4.00;1.72;;;;;;;15.24;43.45;101088.31;1684586;84;21578;-72
2022/04/30 08:24:34;;;;;;;;;;;;;;;15.18;43.57;101097.50;1686920;84;21514;-71
2022/04/30 08:27:01;;;;;;;3.30;1.35;;;;;;;15.08;43.78;101087.63;1684551;84;20142;-72
2022/04/30 08:29:28;;;;;;;3.50;2.08;;;;;;;14.96;44.66;101087.38;1684380;84;21042;-72
2022/04/30 08:31:55;;;;;;;1.35;1.12;;;;;;;14.95;44.60;101082.20;1670142;84;21071;-72
2022/04/30 08:34:21;;;;;;;1.60;1.25;;;;;;;14.63;43.69;101038.06;1670178;84;21511;-71
2022/04/30 08:36:49;;;;;;;2.40;1.40;;;;;;;14.89;43.33;101076.30;1670593;84;21145;-72
2022/04/30 08:39:17;;;;;;;1.32;1.05;;;;;;;14.94;42.16;101076.02;1669648;84;21079;-71
2022/04/30 08:41:45;;;;;;;4.37;0.90;;;;;;;15.05;41.95;101080.48;1650929;84;21092;-72
2022/04/30 08:44:16;;;;;;;;;;;;;;;15.16;40.80;101082.59;1673091;84;21102;-71
2022/04/30 08:46:45;;;;;;;3.25;1.50;;;;;;;15.21;40.03;101064.04;1670130;84;20538;-71
2022/04/30 08:49:12;;;;;;;3.50;1.30;;;;;;;15.18;39.60;101077.36;1670333;84;21122;-72
2022/04/30 08:51:39;;;;;;;1.87;1.42;;;;;;;15.20;38.32;101077.17;1670235;84;21043;-72
2022/04/30 08:54:07;;;;;;;0.88;0.85;;;;;;;15.21;38.16;101076.12;1670061;84;21055;-72
2022/04/30 08:56:36;;;;;;;4.03;1.27;;;;;;;15.20;37.78;101085.22;1670234;84;21042;-73
2022/04/30 08:59:08;;;;;;;1.00;0.90;;;;;;;15.16;38.26;101070.02;1670270;84;21079;-71
2022/04/30 09:01:50;;;;;;;1.25;1.17;;;;;;;15.14;38.24;101064.52;1669591;84;21046;-72
2022/04/30 09:04:17;;;;;;;2.05;0.78;;;;;;;15.16;37.61;101084.80;1646431;85;21178;-72
2022/04/30 09:06:52;;;;;;;0.90;0.70;;;;;;;15.12;37.62;101070.09;1663411;85;21072;-71
2022/04/30 09:09:30;;;;;;;0.85;0.50;;;;;;;15.12;37.71;101069.27;1642536;85;22106;-71
2022/04/30 09:12:09;;;;;;;0.93;0.80;;;;;;;15.17;37.71;101075.69;1663582;85;21025;-72
2022/04/30 09:14:40;;;;;;;1.10;0.68;;;;;;;15.17;37.46;101072.19;1662661;85;21142;-72
2022/04/30 09:17:10;;;;;;;0.40;0.37;;;;;;;15.08;37.41;101063.47;1692939;83;21019;-72
2022/04/30 09:19:56;;;;;;;1.72;0.45;;;;;;;15.02;37.39;101063.45;1692943;83;21054;-74
2022/04/30 09:22:35;;;;;;;1.40;0.57;;;;;;;14.98;37.25;101071.89;1691282;83;21034;-72
2022/04/30 09:25:15;;;;;;;2.05;0.60;;;;;;;14.91;37.30;101054.92;1648631;85;21015;-72
2022/04/30 09:27:49;;;;;;;1.67;0.62;;;;;;;14.92;37.43;101053.91;1624672;87;21095;-72
2022/04/30 09:30:24;;;;;;;0.57;0.57;;;;;;;14.95;37.48;101052.15;1685850;84;21025;-72
2022/04/30 09:33:05;;;;;;;2.60;0.42;;;;;;;14.98;37.47;101043.70;1691283;83;21061;-72
2022/04/30 09:38:19;;;;;;;1.22;0.40;;;;;;;15.14;36.24;101038.52;1695694;84;21522;-71
2022/04/30 09:40:57;;;;;;;1.65;0.60;;;;;;;15.16;36.22;101043.66;1698152;84;21084;-73
2022/04/30 09:43:30;;;;;;;2.40;0.72;;;;;;;15.17;35.72;101039.44;1677603;84;21045;-72
2022/04/30 09:46:04;;;;;;;1.60;0.75;;;;;;;15.17;34.95;101038.62;1637660;85;21656;-71
2022/04/30 09:54:00;;;;;;;2.15;0.72;;;;;;;15.07;35.13;101042.18;1679493;84;21174;-72
2022/04/30 09:56:41;;;;;;;0.53;0.40;;;;;;;15.08;35.17;101042.52;1678494;84;21341;-69
2022/04/30 09:59:21;;;;;;;1.05;0.80;;;;;;;15.10;34.55;101046.64;1675545;84;21075;-71
2022/04/30 10:01:49;;;;;;;1.10;0.50;;;;;;;15.11;34.55;101042.94;1665468;84;21052;-72
2022/04/30 10:04:17;;;;;;;0.60;0.40;;;;;;;15.13;34.95;101045.43;1679381;84;21086;-74
2022/04/30 10:06:48;;;;;;;0.57;0.40;;;;;;;15.23;34.77;101041.83;1678153;84;21051;-72
2022/04/30 10:09:26;;;;;;;0.85;0.55;;;;;;;15.41;34.01;101045.80;1647417;87;21056;-72
2022/04/30 10:12:16;;;;;;;2.25;0.50;;;;;;;15.54;33.23;101052.05;1661881;85;21066;-73
2022/04/30 10:15:16;;;;;;;2.00;0.23;;;;;;;15.66;33.20;101036.67;1668598;83;21129;-74
2022/04/30 10:17:48;;;;;;;1.32;0.37;;;;;;;15.78;31.97;101035.56;1680072;83;21011;-73
2022/04/30 10:20:17;;;;;;;0.60;0.20;;;;;;;15.89;31.46;101042.49;1691372;83;21454;-72
2022/04/30 10:22:55;;;;;;;1.52;0.20;;;;;;;15.91;30.98;101031.02;1691451;83;21047;-71
2022/04/30 10:25:39;;;;;;;0.53;0.20;;;;;;;15.84;30.72;101040.12;1667943;83;21557;-72
2022/04/30 10:28:22;;;;;;;0.80;0.25;;;;;;;15.82;30.92;101043.53;1678971;83;21169;-73
2022/04/30 10:31:06;;;;;;;2.22;0.30;;;;;;;15.73;30.97;101046.92;1690202;83;21302;-72
2022/04/30 10:33:34;;;;;;;0.70;0.35;;;;;;;15.59;31.07;101040.67;1687343;83;21057;-74
2022/04/30 10:36:07;;;;;;;2.05;0.20;;;;;;;15.37;31.54;101040.85;1678201;84;21069;-71
2022/04/30 10:38:36;;;;;;;4.58;0.57;;;;;;;15.27;31.53;101047.63;1677871;84;21078;-71
2022/04/30 10:41:08;;;;;;;3.10;0.20;;;;;;;15.25;31.82;101045.67;1678073;85;21557;-71
2022/04/30 10:43:40;;;;;;;3.30;0.30;;;;;;;15.23;31.48;101046.38;1678682;84;21070;-72
2022/04/30 10:46:21;;;;;;;2.58;0.30;;;;;;;15.13;31.58;101041.41;1671120;84;21026;-73
2022/04/30 10:48:48;;;;;;;2.90;0.30;;;;;;;15.09;31.58;101045.52;1675814;84;21133;-71
2022/04/30 10:51:31;;;;;;;1.67;0.35;;;;;;;15.06;31.25;101044.05;1671172;84;21376;-74
2022/04/30 10:53:59;;;;;;;1.82;0.20;;;;;;;15.05;31.30;101046.44;1654469;84;21573;-74
2022/04/30 10:56:28;;;;;;;0.40;0.40;;;;;;;15.02;31.23;101051.38;1669859;84;21089;-72
2022/04/30 10:58:56;;;;;;;3.17;0.40;;;;;;;14.98;31.40;101047.73;1641316;85;21662;-71
2022/04/30 11:01:22;;;;;;;2.12;0.25;;;;;;;14.97;31.58;101050.13;1685970;83;21003;-73
2022/04/30 11:03:50;;;;;;;0.30;0.23;;;;;;;14.99;31.42;101055.27;1693941;83;21026;-73
2022/04/30 11:06:25;;;;;;;3.30;0.50;;;;;;;15.02;31.29;101049.51;1692332;83;21058;-69
2022/04/30 11:09:06;;;;;;;1.02;0.33;;;;;;;15.06;31.16;101051.28;1693634;83;21018;-72
2022/04/30 11:11:34;;;;;;;1.15;0.68;;;;;;;15.08;31.15;101051.38;1677735;83;21101;-71
2022/04/30 11:14:08;;;;;;;0.50;0.30;;;;;;;15.10;31.09;101046.64;1692838;83;21188;-71
2022/04/30 11:16:41;;;;;;;3.12;0.85;;;;;;;15.04;31.11;101043.42;1702902;83;21529;-70
2022/04/30 11:19:11;;;;;;;0.72;0.60;;;;;;;14.99;31.57;101041.35;1693089;83;21127;-71
2022/04/30 11:21:50;;;;;;;0.98;0.20;;;;;;;15.02;31.61;101032.06;1693138;83;21026;-72
2022/04/30 11:24:28;;;;;;;0.75;0.23;;;;;;;15.06;31.54;101031.97;1693652;83;21077;-70
2022/04/30 11:27:05;;;;;;;0.42;0.42;;;;;;;15.07;31.49;101026.92;1676750;83;21029;-71
2022/04/30 11:29:34;;;;;;;1.85;0.45;;;;;;;15.11;31.63;101026.01;1675271;83;21533;-73
2022/04/30 11:32:01;;;;;;;1.02;0.47;;;;;;;15.17;31.76;101025.20;1670221;83;22064;-70
2022/04/30 11:34:27;;;;;;;2.05;1.00;;;;;;;15.26;31.69;101022.64;1669078;85;21055;-72
2022/04/30 11:36:57;;;;;;;0.60;0.55;;;;;;;15.36;31.49;101013.66;1674766;84;21142;-71
2022/04/30 11:39:24;;;;;;;2.00;0.23;;;;;;;15.10;31.58;100968.77;1677851;84;21035;-71
2022/04/30 11:41:53;;;;;;;0.50;0.40;;;;;;;15.58;31.25;101015.67;1655922;84;21078;-71
2022/04/30 11:44:24;;;;;;;3.42;1.02;;;;;;;15.59;31.38;101015.16;1659226;84;21071;-72
2022/04/30 11:46:53;;;;;;;1.77;0.85;;;;;;;15.43;31.66;101007.50;1681637;84;21229;-72
2022/04/30 11:49:23;;;;;;;3.55;0.57;;;;;;;15.37;32.00;101019.89;1679404;84;21099;-73
2022/04/30 11:51:55;;;;;;;0.78;0.35;;;;;;;15.37;31.83;101015.33;1691275;84;21527;-72
2022/04/30 11:54:28;;;;;;;1.27;0.40;;;;;;;15.41;31.55;101005.02;1705565;84;21051;-72
2022/04/30 11:56:58;;;;;;;1.10;0.40;;;;;;;15.49;31.62;101008.02;1708072;83;21028;-72
2022/04/30 11:59:37;;;;;;;3.65;0.20;;;;;;;15.57;31.88;101001.91;1695685;83;21489;-73
2022/04/30 12:02:10;;;;;;;2.75;0.60;;;;;;;15.68;32.17;101005.86;1694785;84;21115;-73
2022/04/30 12:04:41;;;;;;;1.12;0.40;;;;;;;15.75;31.59;101001.35;1696079;83;21078;-73
2022/04/30 12:07:08;;;;;;;0.30;0.20;;;;;;;15.80;31.45;100999.91;1695067;83;21032;-73
2022/04/30 12:09:37;;;;;;;1.05;0.30;;;;;;;15.77;31.56;101002.50;1685632;83;21095;-73
2022/04/30 12:12:21;;;;;;;3.80;0.20;;;;;;;15.69;31.20;101003.50;1685449;83;21087;-72